sensor_id;sensor_type;location;lat;lon;timestamp;P1;durP1;ratioP1;P2;durP2;ratioP2
66559;SDS011;53413;49.878;8.142;2023-05-27T00:00:29;10.50;;;2.58;;
66559;SDS011;53413;49.878;8.142;2023-05-27T00:02:57;8.70;;;2.35;;
66559;SDS011;53413;49.878;8.142;2023-05-27T00:05:22;7.77;;;2.20;;
66559;SDS011;53413;49.878;8.142;2023-05-27T00:07:47;7.90;;;2.03;;
66559;SDS011;53413;49.878;8.142;2023-05-27T00:10:13;10.47;;;2.40;;
66559;SDS011;53413;49.878;8.142;2023-05-27T00:12:38;10.40;;;2.20;;
66559;SDS011;53413;49.878;8.142;2023-05-27T00:15:04;12.13;;;2.20;;
66559;SDS011;53413;49.878;8.142;2023-05-27T00:17:29;10.43;;;2.20;;
66559;SDS011;53413;49.878;8.142;2023-05-27T00:19:55;10.17;;;2.20;;
66559;SDS011;53413;49.878;8.142;2023-05-27T00:22:20;9.57;;;2.30;;
66559;SDS011;53413;49.878;8.142;2023-05-27T00:24:46;12.50;;;2.45;;
66559;SDS011;53413;49.878;8.142;2023-05-27T00:27:11;9.93;;;2.33;;
66559;SDS011;53413;49.878;8.142;2023-05-27T00:29:36;7.30;;;1.90;;
66559;SDS011;53413;49.878;8.142;2023-05-27T00:32:02;9.47;;;2.10;;
66559;SDS011;53413;49.878;8.142;2023-05-27T00:34:28;11.00;;;2.00;;
66559;SDS011;53413;49.878;8.142;2023-05-27T00:36:55;8.10;;;1.95;;
66559;SDS011;53413;49.878;8.142;2023-05-27T00:39:20;10.40;;;2.60;;
66559;SDS011;53413;49.878;8.142;2023-05-27T00:41:47;9.93;;;2.20;;
66559;SDS011;53413;49.878;8.142;2023-05-27T00:44:14;11.45;;;2.60;;
66559;SDS011;53413;49.878;8.142;2023-05-27T00:46:40;11.73;;;2.53;;
66559;SDS011;53413;49.878;8.142;2023-05-27T00:49:05;12.17;;;2.20;;
66559;SDS011;53413;49.878;8.142;2023-05-27T00:51:30;8.77;;;2.03;;
66559;SDS011;53413;49.878;8.142;2023-05-27T00:53:56;10.97;;;2.40;;
66559;SDS011;53413;49.878;8.142;2023-05-27T00:56:22;9.90;;;2.30;;
66559;SDS011;53413;49.878;8.142;2023-05-27T00:58:47;12.13;;;2.13;;
66559;SDS011;53413;49.878;8.142;2023-05-27T01:01:13;8.20;;;2.35;;
66559;SDS011;53413;49.878;8.142;2023-05-27T01:03:39;10.70;;;2.47;;
66559;SDS011;53413;49.878;8.142;2023-05-27T01:11:23;7.83;;;2.67;;
66559;SDS011;53413;49.878;8.142;2023-05-27T01:13:56;10.10;;;2.30;;
66559;SDS011;53413;49.878;8.142;2023-05-27T01:16:26;8.40;;;2.20;;
66559;SDS011;53413;49.878;8.142;2023-05-27T01:18:53;8.45;;;2.20;;
66559;SDS011;53413;49.878;8.142;2023-05-27T01:21:20;8.00;;;2.17;;
66559;SDS011;53413;49.878;8.142;2023-05-27T01:23:46;9.68;;;2.20;;
66559;SDS011;53413;49.878;8.142;2023-05-27T01:26:13;9.07;;;2.50;;
66559;SDS011;53413;49.878;8.142;2023-05-27T01:28:39;11.10;;;2.25;;
66559;SDS011;53413;49.878;8.142;2023-05-27T01:31:09;11.53;;;2.60;;
66559;SDS011;53413;49.878;8.142;2023-05-27T01:33:45;12.10;;;2.50;;
66559;SDS011;53413;49.878;8.142;2023-05-27T01:36:17;10.77;;;2.28;;
66559;SDS011;53413;49.878;8.142;2023-05-27T01:38:47;10.90;;;2.35;;
66559;SDS011;53413;49.878;8.142;2023-05-27T01:41:14;9.02;;;2.40;;
66559;SDS011;53413;49.878;8.142;2023-05-27T01:43:40;9.10;;;1.93;;
66559;SDS011;53413;49.878;8.142;2023-05-27T01:46:07;9.60;;;2.30;;
66559;SDS011;53413;49.878;8.142;2023-05-27T01:48:33;11.25;;;2.30;;
66559;SDS011;53413;49.878;8.142;2023-05-27T01:50:58;9.37;;;2.30;;
66559;SDS011;53413;49.878;8.142;2023-05-27T01:53:24;10.33;;;2.27;;
66559;SDS011;53413;49.878;8.142;2023-05-27T01:55:49;10.70;;;2.20;;
66559;SDS011;53413;49.878;8.142;2023-05-27T01:58:15;9.20;;;2.40;;
66559;SDS011;53413;49.878;8.142;2023-05-27T02:00:40;10.52;;;2.70;;
66559;SDS011;53413;49.878;8.142;2023-05-27T02:03:05;9.70;;;2.30;;
66559;SDS011;53413;49.878;8.142;2023-05-27T02:05:31;12.33;;;2.53;;
66559;SDS011;53413;49.878;8.142;2023-05-27T02:07:56;8.83;;;2.20;;
66559;SDS011;53413;49.878;8.142;2023-05-27T02:10:21;12.07;;;2.73;;
66559;SDS011;53413;49.878;8.142;2023-05-27T02:12:47;11.13;;;2.20;;
66559;SDS011;53413;49.878;8.142;2023-05-27T02:15:15;10.32;;;2.40;;
66559;SDS011;53413;49.878;8.142;2023-05-27T02:17:41;9.53;;;2.33;;
66559;SDS011;53413;49.878;8.142;2023-05-27T02:20:10;12.85;;;2.63;;
66559;SDS011;53413;49.878;8.142;2023-05-27T02:22:36;9.20;;;2.22;;
66559;SDS011;53413;49.878;8.142;2023-05-27T02:25:01;13.17;;;2.50;;
66559;SDS011;53413;49.878;8.142;2023-05-27T02:27:26;9.57;;;2.30;;
66559;SDS011;53413;49.878;8.142;2023-05-27T02:29:51;12.87;;;2.50;;
66559;SDS011;53413;49.878;8.142;2023-05-27T02:32:17;10.33;;;2.23;;
66559;SDS011;53413;49.878;8.142;2023-05-27T02:34:42;11.30;;;2.50;;
66559;SDS011;53413;49.878;8.142;2023-05-27T02:37:08;10.50;;;2.40;;
66559;SDS011;53413;49.878;8.142;2023-05-27T02:39:34;8.98;;;2.10;;
66559;SDS011;53413;49.878;8.142;2023-05-27T02:41:59;9.80;;;2.50;;
66559;SDS011;53413;49.878;8.142;2023-05-27T02:44:24;11.00;;;2.20;;
66559;SDS011;53413;49.878;8.142;2023-05-27T02:46:50;8.50;;;2.20;;
66559;SDS011;53413;49.878;8.142;2023-05-27T02:49:15;15.33;;;2.47;;
66559;SDS011;53413;49.878;8.142;2023-05-27T02:51:42;9.20;;;2.10;;
66559;SDS011;53413;49.878;8.142;2023-05-27T02:54:07;8.40;;;2.40;;
66559;SDS011;53413;49.878;8.142;2023-05-27T02:56:34;12.15;;;2.45;;
66559;SDS011;53413;49.878;8.142;2023-05-27T02:58:59;13.57;;;2.40;;
66559;SDS011;53413;49.878;8.142;2023-05-27T03:01:24;9.57;;;2.33;;
66559;SDS011;53413;49.878;8.142;2023-05-27T03:03:50;9.10;;;2.30;;
66559;SDS011;53413;49.878;8.142;2023-05-27T03:06:16;9.20;;;2.30;;
66559;SDS011;53413;49.878;8.142;2023-05-27T03:08:41;13.77;;;2.40;;
66559;SDS011;53413;49.878;8.142;2023-05-27T03:11:09;9.30;;;2.38;;
66559;SDS011;53413;49.878;8.142;2023-05-27T03:13:34;7.73;;;2.37;;
66559;SDS011;53413;49.878;8.142;2023-05-27T03:16:00;11.47;;;2.67;;
66559;SDS011;53413;49.878;8.142;2023-05-27T03:18:25;10.25;;;2.33;;
66559;SDS011;53413;49.878;8.142;2023-05-27T03:20:51;9.83;;;1.93;;
66559;SDS011;53413;49.878;8.142;2023-05-27T03:23:16;7.90;;;2.53;;
66559;SDS011;53413;49.878;8.142;2023-05-27T03:25:42;9.17;;;2.10;;
66559;SDS011;53413;49.878;8.142;2023-05-27T03:28:07;9.00;;;2.37;;
66559;SDS011;53413;49.878;8.142;2023-05-27T03:30:32;10.43;;;2.55;;
66559;SDS011;53413;49.878;8.142;2023-05-27T03:32:58;10.70;;;2.50;;
66559;SDS011;53413;49.878;8.142;2023-05-27T03:35:23;12.53;;;2.40;;
66559;SDS011;53413;49.878;8.142;2023-05-27T03:37:48;9.10;;;2.33;;
66559;SDS011;53413;49.878;8.142;2023-05-27T03:40:14;10.73;;;2.63;;
66559;SDS011;53413;49.878;8.142;2023-05-27T03:42:39;7.97;;;2.20;;
66559;SDS011;53413;49.878;8.142;2023-05-27T03:45:05;11.13;;;2.47;;
66559;SDS011;53413;49.878;8.142;2023-05-27T03:47:30;11.98;;;2.58;;
66559;SDS011;53413;49.878;8.142;2023-05-27T03:49:56;12.50;;;2.57;;
66559;SDS011;53413;49.878;8.142;2023-05-27T03:52:21;9.45;;;2.10;;
66559;SDS011;53413;49.878;8.142;2023-05-27T03:54:47;10.88;;;2.47;;
66559;SDS011;53413;49.878;8.142;2023-05-27T03:57:12;8.50;;;2.27;;
66559;SDS011;53413;49.878;8.142;2023-05-27T03:59:37;11.37;;;2.73;;
66559;SDS011;53413;49.878;8.142;2023-05-27T04:02:03;13.30;;;2.73;;
66559;SDS011;53413;49.878;8.142;2023-05-27T04:04:29;9.95;;;2.80;;
66559;SDS011;53413;49.878;8.142;2023-05-27T04:06:54;8.30;;;2.57;;
66559;SDS011;53413;49.878;8.142;2023-05-27T04:09:20;12.10;;;2.58;;
66559;SDS011;53413;49.878;8.142;2023-05-27T04:11:46;10.97;;;2.60;;
66559;SDS011;53413;49.878;8.142;2023-05-27T04:14:11;11.30;;;2.73;;
66559;SDS011;53413;49.878;8.142;2023-05-27T04:16:37;12.60;;;2.60;;
66559;SDS011;53413;49.878;8.142;2023-05-27T04:19:02;10.17;;;2.33;;
66559;SDS011;53413;49.878;8.142;2023-05-27T04:21:27;12.63;;;2.80;;
66559;SDS011;53413;49.878;8.142;2023-05-27T04:23:53;12.20;;;2.60;;
66559;SDS011;53413;49.878;8.142;2023-05-27T04:26:19;9.65;;;2.25;;
66559;SDS011;53413;49.878;8.142;2023-05-27T04:28:45;8.87;;;2.47;;
66559;SDS011;53413;49.878;8.142;2023-05-27T04:31:11;14.70;;;2.63;;
66559;SDS011;53413;49.878;8.142;2023-05-27T04:33:46;8.98;;;2.50;;
66559;SDS011;53413;49.878;8.142;2023-05-27T04:36:12;14.40;;;2.65;;
66559;SDS011;53413;49.878;8.142;2023-05-27T04:38:37;11.57;;;2.60;;
66559;SDS011;53413;49.878;8.142;2023-05-27T04:41:03;10.77;;;2.63;;
66559;SDS011;53413;49.878;8.142;2023-05-27T04:43:29;11.60;;;2.53;;
66559;SDS011;53413;49.878;8.142;2023-05-27T04:45:55;10.93;;;2.58;;
66559;SDS011;53413;49.878;8.142;2023-05-27T04:48:22;13.30;;;2.70;;
66559;SDS011;53413;49.878;8.142;2023-05-27T04:50:49;9.20;;;2.37;;
66559;SDS011;53413;49.878;8.142;2023-05-27T04:53:17;11.10;;;2.53;;
66559;SDS011;53413;49.878;8.142;2023-05-27T04:55:43;8.97;;;2.63;;
66559;SDS011;53413;49.878;8.142;2023-05-27T04:58:08;9.20;;;2.50;;
66559;SDS011;53413;49.878;8.142;2023-05-27T05:00:34;10.40;;;2.57;;
66559;SDS011;53413;49.878;8.142;2023-05-27T05:03:18;7.93;;;2.40;;
66559;SDS011;53413;49.878;8.142;2023-05-27T05:05:50;10.40;;;2.50;;
66559;SDS011;53413;49.878;8.142;2023-05-27T05:08:17;9.20;;;2.70;;
66559;SDS011;53413;49.878;8.142;2023-05-27T05:10:48;11.95;;;2.90;;
66559;SDS011;53413;49.878;8.142;2023-05-27T05:13:14;11.23;;;2.58;;
66559;SDS011;53413;49.878;8.142;2023-05-27T05:15:41;9.50;;;2.60;;
66559;SDS011;53413;49.878;8.142;2023-05-27T05:18:08;11.90;;;2.70;;
66559;SDS011;53413;49.878;8.142;2023-05-27T05:20:35;8.88;;;2.40;;
66559;SDS011;53413;49.878;8.142;2023-05-27T05:23:00;10.53;;;2.70;;
66559;SDS011;53413;49.878;8.142;2023-05-27T05:25:26;9.50;;;3.00;;
66559;SDS011;53413;49.878;8.142;2023-05-27T05:27:51;11.07;;;2.60;;
66559;SDS011;53413;49.878;8.142;2023-05-27T05:30:17;10.40;;;2.83;;
66559;SDS011;53413;49.878;8.142;2023-05-27T05:32:43;9.00;;;2.70;;
66559;SDS011;53413;49.878;8.142;2023-05-27T05:35:08;12.67;;;2.70;;
66559;SDS011;53413;49.878;8.142;2023-05-27T05:37:33;9.03;;;2.53;;
66559;SDS011;53413;49.878;8.142;2023-05-27T05:39:59;10.27;;;2.90;;
66559;SDS011;53413;49.878;8.142;2023-05-27T05:42:24;9.20;;;2.80;;
66559;SDS011;53413;49.878;8.142;2023-05-27T05:44:51;11.85;;;2.92;;
66559;SDS011;53413;49.878;8.142;2023-05-27T05:47:17;9.57;;;2.95;;
66559;SDS011;53413;49.878;8.142;2023-05-27T05:49:42;13.90;;;3.20;;
66559;SDS011;53413;49.878;8.142;2023-05-27T05:52:08;9.87;;;2.90;;
66559;SDS011;53413;49.878;8.142;2023-05-27T05:54:33;12.13;;;2.80;;
66559;SDS011;53413;49.878;8.142;2023-05-27T05:56:59;8.77;;;3.10;;
66559;SDS011;53413;49.878;8.142;2023-05-27T05:59:26;10.02;;;3.40;;
66559;SDS011;53413;49.878;8.142;2023-05-27T06:01:51;11.40;;;3.30;;
66559;SDS011;53413;49.878;8.142;2023-05-27T06:04:16;10.13;;;3.40;;
66559;SDS011;53413;49.878;8.142;2023-05-27T06:06:42;10.10;;;3.05;;
66559;SDS011;53413;49.878;8.142;2023-05-27T06:09:07;10.17;;;3.63;;
66559;SDS011;53413;49.878;8.142;2023-05-27T06:11:33;8.63;;;3.27;;
66559;SDS011;53413;49.878;8.142;2023-05-27T06:13:58;10.83;;;3.37;;
66559;SDS011;53413;49.878;8.142;2023-05-27T06:16:24;9.77;;;3.30;;
66559;SDS011;53413;49.878;8.142;2023-05-27T06:18:49;10.53;;;3.30;;
66559;SDS011;53413;49.878;8.142;2023-05-27T06:21:15;9.33;;;3.23;;
66559;SDS011;53413;49.878;8.142;2023-05-27T06:23:40;10.13;;;3.20;;
66559;SDS011;53413;49.878;8.142;2023-05-27T06:26:05;8.48;;;2.75;;
66559;SDS011;53413;49.878;8.142;2023-05-27T06:28:31;9.13;;;3.40;;
66559;SDS011;53413;49.878;8.142;2023-05-27T06:30:56;10.67;;;3.67;;
66559;SDS011;53413;49.878;8.142;2023-05-27T06:33:21;11.03;;;3.23;;
66559;SDS011;53413;49.878;8.142;2023-05-27T06:35:47;9.93;;;3.60;;
66559;SDS011;53413;49.878;8.142;2023-05-27T06:38:12;8.18;;;3.33;;
66559;SDS011;53413;49.878;8.142;2023-05-27T06:40:38;8.15;;;3.30;;
66559;SDS011;53413;49.878;8.142;2023-05-27T06:43:03;9.63;;;3.47;;
66559;SDS011;53413;49.878;8.142;2023-05-27T06:45:28;9.37;;;3.47;;
66559;SDS011;53413;49.878;8.142;2023-05-27T06:47:55;10.27;;;3.55;;
66559;SDS011;53413;49.878;8.142;2023-05-27T06:50:20;8.43;;;3.47;;
66559;SDS011;53413;49.878;8.142;2023-05-27T06:52:46;10.17;;;3.27;;
66559;SDS011;53413;49.878;8.142;2023-05-27T06:55:11;9.97;;;3.47;;
66559;SDS011;53413;49.878;8.142;2023-05-27T06:57:36;9.83;;;3.47;;
66559;SDS011;53413;49.878;8.142;2023-05-27T07:00:02;11.37;;;3.43;;
66559;SDS011;53413;49.878;8.142;2023-05-27T07:02:30;9.05;;;2.92;;
66559;SDS011;53413;49.878;8.142;2023-05-27T07:04:55;9.45;;;3.28;;
66559;SDS011;53413;49.878;8.142;2023-05-27T07:07:21;10.25;;;3.25;;
66559;SDS011;53413;49.878;8.142;2023-05-27T07:09:49;8.63;;;3.67;;
66559;SDS011;53413;49.878;8.142;2023-05-27T07:12:14;9.55;;;3.03;;
66559;SDS011;53413;49.878;8.142;2023-05-27T07:14:40;10.43;;;3.40;;
66559;SDS011;53413;49.878;8.142;2023-05-27T07:17:05;10.33;;;3.40;;
66559;SDS011;53413;49.878;8.142;2023-05-27T07:19:31;8.32;;;3.42;;
66559;SDS011;53413;49.878;8.142;2023-05-27T07:21:56;10.63;;;3.30;;
66559;SDS011;53413;49.878;8.142;2023-05-27T07:24:22;8.88;;;3.47;;
66559;SDS011;53413;49.878;8.142;2023-05-27T07:26:47;9.47;;;3.30;;
66559;SDS011;53413;49.878;8.142;2023-05-27T07:29:13;11.13;;;3.53;;
66559;SDS011;53413;49.878;8.142;2023-05-27T07:31:38;6.50;;;3.30;;
66559;SDS011;53413;49.878;8.142;2023-05-27T07:34:03;8.77;;;3.30;;
66559;SDS011;53413;49.878;8.142;2023-05-27T07:36:29;10.77;;;3.58;;
66559;SDS011;53413;49.878;8.142;2023-05-27T07:38:54;11.60;;;3.37;;
66559;SDS011;53413;49.878;8.142;2023-05-27T07:41:20;9.73;;;3.43;;
66559;SDS011;53413;49.878;8.142;2023-05-27T07:43:46;11.00;;;3.78;;
66559;SDS011;53413;49.878;8.142;2023-05-27T07:46:12;9.50;;;3.20;;
66559;SDS011;53413;49.878;8.142;2023-05-27T07:48:37;10.27;;;3.67;;
66559;SDS011;53413;49.878;8.142;2023-05-27T07:51:02;8.83;;;3.47;;
66559;SDS011;53413;49.878;8.142;2023-05-27T07:53:28;9.77;;;3.60;;
66559;SDS011;53413;49.878;8.142;2023-05-27T07:55:53;10.13;;;3.57;;
66559;SDS011;53413;49.878;8.142;2023-05-27T07:58:18;9.33;;;3.60;;
66559;SDS011;53413;49.878;8.142;2023-05-27T08:00:44;10.90;;;3.53;;
66559;SDS011;53413;49.878;8.142;2023-05-27T08:03:09;9.30;;;3.20;;
66559;SDS011;53413;49.878;8.142;2023-05-27T08:05:34;9.37;;;3.90;;
66559;SDS011;53413;49.878;8.142;2023-05-27T08:08:00;10.07;;;3.80;;
66559;SDS011;53413;49.878;8.142;2023-05-27T08:10:26;10.60;;;3.90;;
66559;SDS011;53413;49.878;8.142;2023-05-27T08:12:51;8.53;;;3.60;;
66559;SDS011;53413;49.878;8.142;2023-05-27T08:15:16;10.37;;;3.70;;
66559;SDS011;53413;49.878;8.142;2023-05-27T08:17:42;10.63;;;4.15;;
66559;SDS011;53413;49.878;8.142;2023-05-27T08:20:09;9.02;;;3.35;;
66559;SDS011;53413;49.878;8.142;2023-05-27T08:22:35;9.40;;;3.53;;
66559;SDS011;53413;49.878;8.142;2023-05-27T08:25:01;8.90;;;3.53;;
66559;SDS011;53413;49.878;8.142;2023-05-27T08:27:43;8.32;;;3.70;;
66559;SDS011;53413;49.878;8.142;2023-05-27T08:30:17;8.38;;;3.70;;
66559;SDS011;53413;49.878;8.142;2023-05-27T08:32:43;10.03;;;3.77;;
66559;SDS011;53413;49.878;8.142;2023-05-27T08:35:09;10.02;;;3.92;;
66559;SDS011;53413;49.878;8.142;2023-05-27T08:37:36;9.70;;;3.77;;
66559;SDS011;53413;49.878;8.142;2023-05-27T08:40:02;8.73;;;3.70;;
66559;SDS011;53413;49.878;8.142;2023-05-27T08:42:31;9.77;;;3.70;;
66559;SDS011;53413;49.878;8.142;2023-05-27T08:44:57;8.57;;;3.30;;
66559;SDS011;53413;49.878;8.142;2023-05-27T08:47:23;8.50;;;3.97;;
66559;SDS011;53413;49.878;8.142;2023-05-27T08:49:49;9.73;;;3.63;;
66559;SDS011;53413;49.878;8.142;2023-05-27T08:52:15;9.40;;;3.30;;
66559;SDS011;53413;49.878;8.142;2023-05-27T08:54:46;8.48;;;3.85;;
66559;SDS011;53413;49.878;8.142;2023-05-27T08:57:13;8.85;;;3.83;;
66559;SDS011;53413;49.878;8.142;2023-05-27T08:59:41;10.30;;;3.80;;
66559;SDS011;53413;49.878;8.142;2023-05-27T09:02:08;9.88;;;3.85;;
66559;SDS011;53413;49.878;8.142;2023-05-27T09:04:37;10.93;;;3.90;;
66559;SDS011;53413;49.878;8.142;2023-05-27T09:07:03;9.27;;;4.03;;
66559;SDS011;53413;49.878;8.142;2023-05-27T09:09:29;10.98;;;3.83;;
66559;SDS011;53413;49.878;8.142;2023-05-27T09:11:54;8.77;;;3.60;;
66559;SDS011;53413;49.878;8.142;2023-05-27T09:14:27;9.38;;;3.72;;
66559;SDS011;53413;49.878;8.142;2023-05-27T09:16:52;8.43;;;3.80;;
66559;SDS011;53413;49.878;8.142;2023-05-27T09:19:19;9.27;;;3.50;;
66559;SDS011;53413;49.878;8.142;2023-05-27T09:21:45;8.57;;;3.90;;
66559;SDS011;53413;49.878;8.142;2023-05-27T09:24:11;9.25;;;3.65;;
66559;SDS011;53413;49.878;8.142;2023-05-27T09:26:37;9.00;;;4.30;;
66559;SDS011;53413;49.878;8.142;2023-05-27T09:29:09;8.85;;;3.95;;
66559;SDS011;53413;49.878;8.142;2023-05-27T09:31:41;13.27;;;5.50;;
66559;SDS011;53413;49.878;8.142;2023-05-27T09:34:13;9.95;;;4.00;;
66559;SDS011;53413;49.878;8.142;2023-05-27T09:36:47;14.30;;;6.78;;
66559;SDS011;53413;49.878;8.142;2023-05-27T09:39:14;11.27;;;4.30;;
66559;SDS011;53413;49.878;8.142;2023-05-27T09:41:41;9.70;;;3.88;;
66559;SDS011;53413;49.878;8.142;2023-05-27T09:44:07;10.27;;;4.07;;
66559;SDS011;53413;49.878;8.142;2023-05-27T09:46:33;12.50;;;4.47;;
66559;SDS011;53413;49.878;8.142;2023-05-27T09:48:59;9.23;;;3.83;;
66559;SDS011;53413;49.878;8.142;2023-05-27T09:51:26;9.48;;;4.00;;
66559;SDS011;53413;49.878;8.142;2023-05-27T09:53:55;10.55;;;4.38;;
66559;SDS011;53413;49.878;8.142;2023-05-27T09:56:27;11.75;;;3.95;;
66559;SDS011;53413;49.878;8.142;2023-05-27T09:58:56;10.40;;;3.55;;
66559;SDS011;53413;49.878;8.142;2023-05-27T10:01:25;10.73;;;3.83;;
66559;SDS011;53413;49.878;8.142;2023-05-27T10:03:55;10.20;;;3.53;;
66559;SDS011;53413;49.878;8.142;2023-05-27T10:06:24;8.00;;;3.40;;
66559;SDS011;53413;49.878;8.142;2023-05-27T10:08:51;9.32;;;3.80;;
66559;SDS011;53413;49.878;8.142;2023-05-27T10:11:23;8.82;;;4.10;;
66559;SDS011;53413;49.878;8.142;2023-05-27T10:13:51;9.32;;;3.95;;
66559;SDS011;53413;49.878;8.142;2023-05-27T10:16:20;9.65;;;3.03;;
66559;SDS011;53413;49.878;8.142;2023-05-27T10:18:47;8.35;;;3.13;;
66559;SDS011;53413;49.878;8.142;2023-05-27T10:21:20;10.30;;;3.20;;
66559;SDS011;53413;49.878;8.142;2023-05-27T10:23:56;10.55;;;3.58;;
66559;SDS011;53413;49.878;8.142;2023-05-27T10:31:47;10.35;;;3.28;;
66559;SDS011;53413;49.878;8.142;2023-05-27T10:34:14;10.15;;;2.90;;
66559;SDS011;53413;49.878;8.142;2023-05-27T10:36:40;9.30;;;3.20;;
66559;SDS011;53413;49.878;8.142;2023-05-27T10:39:08;8.48;;;2.80;;
66559;SDS011;53413;49.878;8.142;2023-05-27T10:44:05;11.63;;;3.20;;
66559;SDS011;53413;49.878;8.142;2023-05-27T10:46:37;9.67;;;2.90;;
66559;SDS011;53413;49.878;8.142;2023-05-27T10:49:15;8.45;;;2.97;;
66559;SDS011;53413;49.878;8.142;2023-05-27T10:51:47;9.52;;;3.10;;
66559;SDS011;53413;49.878;8.142;2023-05-27T10:54:13;11.63;;;3.60;;
66559;SDS011;53413;49.878;8.142;2023-05-27T10:56:50;12.00;;;3.20;;
66559;SDS011;53413;49.878;8.142;2023-05-27T10:59:19;10.38;;;3.40;;
66559;SDS011;53413;49.878;8.142;2023-05-27T11:01:51;11.05;;;3.30;;
66559;SDS011;53413;49.878;8.142;2023-05-27T11:04:18;10.32;;;3.30;;
66559;SDS011;53413;49.878;8.142;2023-05-27T11:06:59;10.65;;;3.20;;
66559;SDS011;53413;49.878;8.142;2023-05-27T11:09:25;10.77;;;3.08;;
66559;SDS011;53413;49.878;8.142;2023-05-27T11:11:51;9.27;;;3.08;;
66559;SDS011;53413;49.878;8.142;2023-05-27T11:14:16;8.40;;;3.20;;
66559;SDS011;53413;49.878;8.142;2023-05-27T11:16:47;9.90;;;3.10;;
66559;SDS011;53413;49.878;8.142;2023-05-27T11:19:17;9.65;;;3.05;;
66559;SDS011;53413;49.878;8.142;2023-05-27T11:21:47;10.60;;;3.25;;
66559;SDS011;53413;49.878;8.142;2023-05-27T11:24:16;7.82;;;3.10;;
66559;SDS011;53413;49.878;8.142;2023-05-27T11:26:46;9.98;;;3.00;;
66559;SDS011;53413;49.878;8.142;2023-05-27T11:29:15;10.13;;;3.28;;
66559;SDS011;53413;49.878;8.142;2023-05-27T11:31:41;9.98;;;3.00;;
66559;SDS011;53413;49.878;8.142;2023-05-27T11:34:14;8.68;;;2.95;;
66559;SDS011;53413;49.878;8.142;2023-05-27T11:36:40;11.05;;;3.40;;
66559;SDS011;53413;49.878;8.142;2023-05-27T11:39:09;8.75;;;3.10;;
66559;SDS011;53413;49.878;8.142;2023-05-27T11:41:46;8.32;;;2.80;;
66559;SDS011;53413;49.878;8.142;2023-05-27T11:44:16;11.07;;;3.10;;
66559;SDS011;53413;49.878;8.142;2023-05-27T11:46:43;10.52;;;2.90;;
66559;SDS011;53413;49.878;8.142;2023-05-27T11:49:10;10.05;;;3.10;;
66559;SDS011;53413;49.878;8.142;2023-05-27T11:54:06;10.23;;;3.05;;
66559;SDS011;53413;49.878;8.142;2023-05-27T11:56:32;9.25;;;2.90;;
66559;SDS011;53413;49.878;8.142;2023-05-27T11:58:58;8.80;;;2.93;;
66559;SDS011;53413;49.878;8.142;2023-05-27T12:01:26;8.77;;;2.97;;
66559;SDS011;53413;49.878;8.142;2023-05-27T12:03:51;9.53;;;3.10;;
66559;SDS011;53413;49.878;8.142;2023-05-27T12:06:17;9.27;;;2.92;;
66559;SDS011;53413;49.878;8.142;2023-05-27T12:08:42;10.47;;;3.30;;
66559;SDS011;53413;49.878;8.142;2023-05-27T12:11:08;11.97;;;3.00;;
66559;SDS011;53413;49.878;8.142;2023-05-27T12:13:33;14.95;;;3.45;;
66559;SDS011;53413;49.878;8.142;2023-05-27T12:15:59;9.23;;;3.00;;
66559;SDS011;53413;49.878;8.142;2023-05-27T12:18:24;9.83;;;3.30;;
66559;SDS011;53413;49.878;8.142;2023-05-27T12:20:50;8.07;;;2.80;;
66559;SDS011;53413;49.878;8.142;2023-05-27T12:23:16;9.17;;;3.17;;
66559;SDS011;53413;49.878;8.142;2023-05-27T12:25:41;10.95;;;3.40;;
66559;SDS011;53413;49.878;8.142;2023-05-27T12:28:07;11.87;;;3.27;;
66559;SDS011;53413;49.878;8.142;2023-05-27T12:30:33;11.32;;;2.90;;
66559;SDS011;53413;49.878;8.142;2023-05-27T12:33:00;7.75;;;3.10;;
66559;SDS011;53413;49.878;8.142;2023-05-27T12:35:26;7.20;;;2.90;;
66559;SDS011;53413;49.878;8.142;2023-05-27T12:37:51;8.73;;;2.97;;
66559;SDS011;53413;49.878;8.142;2023-05-27T12:40:17;9.10;;;3.25;;
66559;SDS011;53413;49.878;8.142;2023-05-27T12:42:42;7.80;;;2.90;;
66559;SDS011;53413;49.878;8.142;2023-05-27T12:45:09;7.72;;;2.65;;
66559;SDS011;53413;49.878;8.142;2023-05-27T12:47:35;13.40;;;3.25;;
66559;SDS011;53413;49.878;8.142;2023-05-27T12:50:04;7.70;;;2.80;;
66559;SDS011;53413;49.878;8.142;2023-05-27T12:52:30;8.40;;;3.00;;
66559;SDS011;53413;49.878;8.142;2023-05-27T12:54:55;7.45;;;2.80;;
66559;SDS011;53413;49.878;8.142;2023-05-27T12:57:21;10.73;;;3.20;;
66559;SDS011;53413;49.878;8.142;2023-05-27T12:59:47;8.50;;;3.20;;
66559;SDS011;53413;49.878;8.142;2023-05-27T13:02:12;7.27;;;2.90;;
66559;SDS011;53413;49.878;8.142;2023-05-27T13:04:39;8.90;;;3.03;;
66559;SDS011;53413;49.878;8.142;2023-05-27T13:07:05;10.33;;;2.80;;
66559;SDS011;53413;49.878;8.142;2023-05-27T13:09:30;9.32;;;3.20;;
66559;SDS011;53413;49.878;8.142;2023-05-27T13:11:55;7.73;;;2.60;;
66559;SDS011;53413;49.878;8.142;2023-05-27T13:14:22;9.98;;;3.08;;
66559;SDS011;53413;49.878;8.142;2023-05-27T13:16:47;8.73;;;2.90;;
66559;SDS011;53413;49.878;8.142;2023-05-27T13:19:13;8.13;;;2.80;;
66559;SDS011;53413;49.878;8.142;2023-05-27T13:21:39;6.60;;;2.50;;
66559;SDS011;53413;49.878;8.142;2023-05-27T13:24:04;8.80;;;2.83;;
66559;SDS011;53413;49.878;8.142;2023-05-27T13:26:30;10.67;;;3.00;;
66559;SDS011;53413;49.878;8.142;2023-05-27T13:28:55;9.73;;;2.80;;
66559;SDS011;53413;49.878;8.142;2023-05-27T13:31:21;8.90;;;2.83;;
66559;SDS011;53413;49.878;8.142;2023-05-27T13:33:46;10.83;;;2.93;;
66559;SDS011;53413;49.878;8.142;2023-05-27T13:36:12;12.27;;;2.70;;
66559;SDS011;53413;49.878;8.142;2023-05-27T13:38:37;8.65;;;3.03;;
66559;SDS011;53413;49.878;8.142;2023-05-27T13:41:03;7.20;;;2.70;;
66559;SDS011;53413;49.878;8.142;2023-05-27T13:43:28;8.88;;;2.70;;
66559;SDS011;53413;49.878;8.142;2023-05-27T13:45:54;8.23;;;2.83;;
66559;SDS011;53413;49.878;8.142;2023-05-27T13:48:20;11.53;;;2.97;;
66559;SDS011;53413;49.878;8.142;2023-05-27T13:50:48;9.70;;;2.80;;
66559;SDS011;53413;49.878;8.142;2023-05-27T13:53:14;7.40;;;2.87;;
66559;SDS011;53413;49.878;8.142;2023-05-27T13:55:41;8.60;;;2.90;;
66559;SDS011;53413;49.878;8.142;2023-05-27T13:58:08;7.80;;;2.90;;
66559;SDS011;53413;49.878;8.142;2023-05-27T14:00:33;9.15;;;3.00;;
66559;SDS011;53413;49.878;8.142;2023-05-27T14:02:58;8.53;;;3.17;;
66559;SDS011;53413;49.878;8.142;2023-05-27T14:05:24;8.57;;;3.17;;
66559;SDS011;53413;49.878;8.142;2023-05-27T14:07:51;8.05;;;2.80;;
66559;SDS011;53413;49.878;8.142;2023-05-27T14:10:17;8.30;;;2.90;;
66559;SDS011;53413;49.878;8.142;2023-05-27T14:12:42;8.67;;;3.07;;
66559;SDS011;53413;49.878;8.142;2023-05-27T14:15:08;9.70;;;3.00;;
66559;SDS011;53413;49.878;8.142;2023-05-27T14:17:34;9.18;;;2.83;;
66559;SDS011;53413;49.878;8.142;2023-05-27T14:19:59;8.00;;;3.00;;
66559;SDS011;53413;49.878;8.142;2023-05-27T14:22:25;8.00;;;2.80;;
66559;SDS011;53413;49.878;8.142;2023-05-27T14:24:50;8.05;;;2.83;;
66559;SDS011;53413;49.878;8.142;2023-05-27T14:27:16;10.67;;;2.90;;
66559;SDS011;53413;49.878;8.142;2023-05-27T14:29:41;7.83;;;2.67;;
66559;SDS011;53413;49.878;8.142;2023-05-27T14:32:07;8.80;;;3.10;;
66559;SDS011;53413;49.878;8.142;2023-05-27T14:34:32;8.77;;;3.08;;
66559;SDS011;53413;49.878;8.142;2023-05-27T14:36:58;7.53;;;2.73;;
66559;SDS011;53413;49.878;8.142;2023-05-27T14:39:23;8.53;;;3.30;;
66559;SDS011;53413;49.878;8.142;2023-05-27T14:41:48;9.37;;;3.03;;
66559;SDS011;53413;49.878;8.142;2023-05-27T14:44:14;7.65;;;2.90;;
66559;SDS011;53413;49.878;8.142;2023-05-27T14:46:40;7.77;;;2.70;;
66559;SDS011;53413;49.878;8.142;2023-05-27T14:49:05;6.90;;;3.03;;
66559;SDS011;53413;49.878;8.142;2023-05-27T14:51:31;9.88;;;3.10;;
66559;SDS011;53413;49.878;8.142;2023-05-27T14:53:56;8.37;;;3.00;;